sensor_id;sensor_type;location;lat;lon;timestamp;temperature;humidity
34644;DHT22;26931;43.498;-1.506;2022-09-09T00:03:50;22.60;87.40
34644;DHT22;26931;43.498;-1.506;2022-09-09T00:06:30;22.40;87.50
34644;DHT22;26931;43.498;-1.506;2022-09-09T00:09:18;22.50;87.80
34644;DHT22;26931;43.498;-1.506;2022-09-09T00:12:00;22.60;88.20
34644;DHT22;26931;43.498;-1.506;2022-09-09T00:14:47;22.40;88.20
34644;DHT22;26931;43.498;-1.506;2022-09-09T00:17:39;22.40;88.40
34644;DHT22;26931;43.498;-1.506;2022-09-09T00:23:25;22.40;88.80
34644;DHT22;26931;43.498;-1.506;2022-09-09T00:31:34;22.60;89.20
34644;DHT22;26931;43.498;-1.506;2022-09-09T00:34:16;22.30;89.20
34644;DHT22;26931;43.498;-1.506;2022-09-09T00:36:44;22.40;89.50
34644;DHT22;26931;43.498;-1.506;2022-09-09T00:39:34;22.30;89.50
34644;DHT22;26931;43.498;-1.506;2022-09-09T00:42:07;22.30;89.60
34644;DHT22;26931;43.498;-1.506;2022-09-09T00:44:37;22.20;89.60
34644;DHT22;26931;43.498;-1.506;2022-09-09T00:50:06;22.20;89.90
34644;DHT22;26931;43.498;-1.506;2022-09-09T00:52:39;22.10;90.00
34644;DHT22;26931;43.498;-1.506;2022-09-09T00:55:47;22.10;90.00
34644;DHT22;26931;43.498;-1.506;2022-09-09T00:58:14;22.20;90.10
34644;DHT22;26931;43.498;-1.506;2022-09-09T01:00:44;22.30;90.10
34644;DHT22;26931;43.498;-1.506;2022-09-09T01:03:25;22.10;90.20
34644;DHT22;26931;43.498;-1.506;2022-09-09T01:06:49;22.10;90.30
34644;DHT22;26931;43.498;-1.506;2022-09-09T01:11:55;22.30;90.30
34644;DHT22;26931;43.498;-1.506;2022-09-09T01:17:14;22.10;90.30
34644;DHT22;26931;43.498;-1.506;2022-09-09T01:25:20;21.90;90.50
34644;DHT22;26931;43.498;-1.506;2022-09-09T01:27:50;21.80;90.50
34644;DHT22;26931;43.498;-1.506;2022-09-09T01:30:18;21.80;90.60
34644;DHT22;26931;43.498;-1.506;2022-09-09T01:32:51;21.90;90.70
34644;DHT22;26931;43.498;-1.506;2022-09-09T01:35:44;21.60;90.70
34644;DHT22;26931;43.498;-1.506;2022-09-09T01:38:12;21.60;90.80
34644;DHT22;26931;43.498;-1.506;2022-09-09T01:40:39;21.60;90.90
34644;DHT22;26931;43.498;-1.506;2022-09-09T01:43:05;21.60;90.90
34644;DHT22;26931;43.498;-1.506;2022-09-09T01:45:33;21.80;91.10
34644;DHT22;26931;43.498;-1.506;2022-09-09T01:47:59;21.70;91.20
34644;DHT22;26931;43.498;-1.506;2022-09-09T01:50:26;21.60;91.40
34644;DHT22;26931;43.498;-1.506;2022-09-09T01:52:56;21.70;91.50
34644;DHT22;26931;43.498;-1.506;2022-09-09T01:55:58;21.70;91.60
34644;DHT22;26931;43.498;-1.506;2022-09-09T02:02:11;21.70;91.60
34644;DHT22;26931;43.498;-1.506;2022-09-09T02:04:49;21.70;91.60
34644;DHT22;26931;43.498;-1.506;2022-09-09T02:10:10;21.60;91.90
34644;DHT22;26931;43.498;-1.506;2022-09-09T02:12:42;21.50;92.00
34644;DHT22;26931;43.498;-1.506;2022-09-09T02:15:30;21.40;92.00
34644;DHT22;26931;43.498;-1.506;2022-09-09T02:17:58;21.40;92.00
34644;DHT22;26931;43.498;-1.506;2022-09-09T02:20:28;21.40;92.10
34644;DHT22;26931;43.498;-1.506;2022-09-09T02:22:58;21.40;92.20
34644;DHT22;26931;43.498;-1.506;2022-09-09T02:25:26;21.40;92.30
34644;DHT22;26931;43.498;-1.506;2022-09-09T02:27:53;21.40;92.60
34644;DHT22;26931;43.498;-1.506;2022-09-09T02:30:20;21.50;92.80
34644;DHT22;26931;43.498;-1.506;2022-09-09T02:32:48;21.40;92.80
34644;DHT22;26931;43.498;-1.506;2022-09-09T02:35:19;21.30;92.90
34644;DHT22;26931;43.498;-1.506;2022-09-09T02:37:50;21.30;93.00
34644;DHT22;26931;43.498;-1.506;2022-09-09T02:40:17;21.30;92.90
34644;DHT22;26931;43.498;-1.506;2022-09-09T02:42:46;21.30;93.10
34644;DHT22;26931;43.498;-1.506;2022-09-09T02:45:15;21.50;93.20
34644;DHT22;26931;43.498;-1.506;2022-09-09T02:48:03;21.30;93.30
34644;DHT22;26931;43.498;-1.506;2022-09-09T02:50:41;21.30;93.50
34644;DHT22;26931;43.498;-1.506;2022-09-09T02:53:18;21.30;93.60
34644;DHT22;26931;43.498;-1.506;2022-09-09T02:55:58;21.30;93.90
34644;DHT22;26931;43.498;-1.506;2022-09-09T02:58:26;21.40;94.20
34644;DHT22;26931;43.498;-1.506;2022-09-09T03:00:52;21.40;94.30
34644;DHT22;26931;43.498;-1.506;2022-09-09T03:03:19;21.50;94.40
34644;DHT22;26931;43.498;-1.506;2022-09-09T03:05:46;21.60;94.50
34644;DHT22;26931;43.498;-1.506;2022-09-09T03:08:13;21.60;94.50
34644;DHT22;26931;43.498;-1.506;2022-09-09T03:10:39;21.50;94.50
34644;DHT22;26931;43.498;-1.506;2022-09-09T03:13:05;21.50;94.50
34644;DHT22;26931;43.498;-1.506;2022-09-09T03:15:32;21.60;94.50
34644;DHT22;26931;43.498;-1.506;2022-09-09T03:17:58;21.50;94.50
34644;DHT22;26931;43.498;-1.506;2022-09-09T03:20:26;21.60;94.60
34644;DHT22;26931;43.498;-1.506;2022-09-09T03:22:53;21.60;94.60
34644;DHT22;26931;43.498;-1.506;2022-09-09T03:25:20;21.50;94.50
34644;DHT22;26931;43.498;-1.506;2022-09-09T03:27:46;21.60;94.40
34644;DHT22;26931;43.498;-1.506;2022-09-09T03:30:12;21.70;94.30
34644;DHT22;26931;43.498;-1.506;2022-09-09T03:32:39;21.70;94.20
34644;DHT22;26931;43.498;-1.506;2022-09-09T03:35:06;21.70;94.10
34644;DHT22;26931;43.498;-1.506;2022-09-09T03:37:32;21.70;94.00
34644;DHT22;26931;43.498;-1.506;2022-09-09T03:39:58;21.70;93.80
34644;DHT22;26931;43.498;-1.506;2022-09-09T03:42:25;21.70;93.70
34644;DHT22;26931;43.498;-1.506;2022-09-09T03:44:51;21.70;93.60
34644;DHT22;26931;43.498;-1.506;2022-09-09T03:47:18;21.70;93.40
34644;DHT22;26931;43.498;-1.506;2022-09-09T03:49:45;21.70;93.30
34644;DHT22;26931;43.498;-1.506;2022-09-09T03:52:12;21.70;93.20
34644;DHT22;26931;43.498;-1.506;2022-09-09T03:54:38;21.60;93.10
34644;DHT22;26931;43.498;-1.506;2022-09-09T03:57:04;21.70;93.00
34644;DHT22;26931;43.498;-1.506;2022-09-09T03:59:30;21.80;93.00
34644;DHT22;26931;43.498;-1.506;2022-09-09T04:01:56;21.60;92.70
34644;DHT22;26931;43.498;-1.506;2022-09-09T04:04:24;21.80;92.70
34644;DHT22;26931;43.498;-1.506;2022-09-09T04:06:52;21.70;92.60
34644;DHT22;26931;43.498;-1.506;2022-09-09T04:09:18;21.60;92.60
34644;DHT22;26931;43.498;-1.506;2022-09-09T04:11:44;21.60;92.60
34644;DHT22;26931;43.498;-1.506;2022-09-09T04:14:11;21.60;92.50
34644;DHT22;26931;43.498;-1.506;2022-09-09T04:16:38;21.60;92.40
34644;DHT22;26931;43.498;-1.506;2022-09-09T04:19:05;21.80;92.50
34644;DHT22;26931;43.498;-1.506;2022-09-09T04:21:32;21.60;92.40
34644;DHT22;26931;43.498;-1.506;2022-09-09T04:23:58;21.60;92.40
34644;DHT22;26931;43.498;-1.506;2022-09-09T04:26:24;21.70;92.50
34644;DHT22;26931;43.498;-1.506;2022-09-09T04:28:50;21.60;92.40
34644;DHT22;26931;43.498;-1.506;2022-09-09T04:31:21;21.60;92.40
34644;DHT22;26931;43.498;-1.506;2022-09-09T04:33:51;21.60;92.50
34644;DHT22;26931;43.498;-1.506;2022-09-09T04:36:18;21.60;92.40
34644;DHT22;26931;43.498;-1.506;2022-09-09T04:38:47;21.70;92.40
34644;DHT22;26931;43.498;-1.506;2022-09-09T04:41:15;21.70;92.40
34644;DHT22;26931;43.498;-1.506;2022-09-09T04:43:42;21.80;92.40
34644;DHT22;26931;43.498;-1.506;2022-09-09T04:46:08;21.70;92.40
34644;DHT22;26931;43.498;-1.506;2022-09-09T04:48:35;21.70;92.50
34644;DHT22;26931;43.498;-1.506;2022-09-09T04:51:05;21.70;92.30
34644;DHT22;26931;43.498;-1.506;2022-09-09T04:53:32;21.70;92.30
34644;DHT22;26931;43.498;-1.506;2022-09-09T04:56:14;21.70;92.30
34644;DHT22;26931;43.498;-1.506;2022-09-09T04:58:41;21.70;92.30
34644;DHT22;26931;43.498;-1.506;2022-09-09T05:01:15;21.60;92.30
34644;DHT22;26931;43.498;-1.506;2022-09-09T05:03:43;21.50;92.30
34644;DHT22;26931;43.498;-1.506;2022-09-09T05:06:12;21.60;92.40
34644;DHT22;26931;43.498;-1.506;2022-09-09T05:08:40;21.70;92.40
34644;DHT22;26931;43.498;-1.506;2022-09-09T05:11:33;21.60;92.40
34644;DHT22;26931;43.498;-1.506;2022-09-09T05:14:01;21.60;92.50
34644;DHT22;26931;43.498;-1.506;2022-09-09T05:16:27;21.60;92.60
34644;DHT22;26931;43.498;-1.506;2022-09-09T05:18:53;21.60;92.60
34644;DHT22;26931;43.498;-1.506;2022-09-09T05:21:21;21.50;92.60
34644;DHT22;26931;43.498;-1.506;2022-09-09T05:23:48;21.50;92.70
34644;DHT22;26931;43.498;-1.506;2022-09-09T05:26:19;21.40;92.90
34644;DHT22;26931;43.498;-1.506;2022-09-09T05:28:45;21.40;93.10
34644;DHT22;26931;43.498;-1.506;2022-09-09T05:31:12;21.40;93.20
34644;DHT22;26931;43.498;-1.506;2022-09-09T05:33:44;21.30;93.20
34644;DHT22;26931;43.498;-1.506;2022-09-09T05:36:16;21.30;93.40
34644;DHT22;26931;43.498;-1.506;2022-09-09T05:38:43;21.30;93.50
34644;DHT22;26931;43.498;-1.506;2022-09-09T05:41:10;21.30;93.50
34644;DHT22;26931;43.498;-1.506;2022-09-09T05:43:37;21.30;93.60
34644;DHT22;26931;43.498;-1.506;2022-09-09T05:46:06;21.30;93.60
34644;DHT22;26931;43.498;-1.506;2022-09-09T05:48:38;21.20;93.70
34644;DHT22;26931;43.498;-1.506;2022-09-09T05:51:06;21.40;93.80
34644;DHT22;26931;43.498;-1.506;2022-09-09T05:53:33;21.30;94.20
34644;DHT22;26931;43.498;-1.506;2022-09-09T05:56:10;21.30;94.00
34644;DHT22;26931;43.498;-1.506;2022-09-09T05:58:37;21.10;94.10
34644;DHT22;26931;43.498;-1.506;2022-09-09T06:01:12;21.00;94.10
34644;DHT22;26931;43.498;-1.506;2022-09-09T06:03:41;21.00;94.20
34644;DHT22;26931;43.498;-1.506;2022-09-09T06:06:09;21.20;94.30
34644;DHT22;26931;43.498;-1.506;2022-09-09T06:08:38;21.00;94.40
34644;DHT22;26931;43.498;-1.506;2022-09-09T06:11:09;21.00;94.50
34644;DHT22;26931;43.498;-1.506;2022-09-09T06:13:36;21.00;94.60
34644;DHT22;26931;43.498;-1.506;2022-09-09T06:16:13;21.10;94.80
34644;DHT22;26931;43.498;-1.506;2022-09-09T06:18:40;20.90;94.80
34644;DHT22;26931;43.498;-1.506;2022-09-09T06:21:15;21.00;94.90
34644;DHT22;26931;43.498;-1.506;2022-09-09T06:23:41;20.80;94.90
34644;DHT22;26931;43.498;-1.506;2022-09-09T06:26:31;20.90;94.90
34644;DHT22;26931;43.498;-1.506;2022-09-09T06:28:56;20.90;95.00
34644;DHT22;26931;43.498;-1.506;2022-09-09T06:31:26;20.90;95.00
34644;DHT22;26931;43.498;-1.506;2022-09-09T06:33:53;21.00;95.20
34644;DHT22;26931;43.498;-1.506;2022-09-09T06:36:27;20.90;95.20
34644;DHT22;26931;43.498;-1.506;2022-09-09T06:38:54;21.30;95.40
34644;DHT22;26931;43.498;-1.506;2022-09-09T06:41:22;21.10;95.40
34644;DHT22;26931;43.498;-1.506;2022-09-09T06:43:48;21.10;95.40
34644;DHT22;26931;43.498;-1.506;2022-09-09T06:46:17;21.30;95.50
34644;DHT22;26931;43.498;-1.506;2022-09-09T06:48:44;21.00;95.40
34644;DHT22;26931;43.498;-1.506;2022-09-09T06:53:40;21.00;95.40
34644;DHT22;26931;43.498;-1.506;2022-09-09T06:58:39;21.10;95.40
34644;DHT22;26931;43.498;-1.506;2022-09-09T07:01:10;21.10;95.20
34644;DHT22;26931;43.498;-1.506;2022-09-09T07:03:41;21.10;95.00
34644;DHT22;26931;43.498;-1.506;2022-09-09T07:06:12;21.20;94.80
34644;DHT22;26931;43.498;-1.506;2022-09-09T07:08:42;21.20;94.40
34644;DHT22;26931;43.498;-1.506;2022-09-09T07:11:09;21.20;94.00
34644;DHT22;26931;43.498;-1.506;2022-09-09T07:13:35;21.40;93.80
34644;DHT22;26931;43.498;-1.506;2022-09-09T07:16:09;21.30;93.30
34644;DHT22;26931;43.498;-1.506;2022-09-09T07:18:35;21.50;92.80
34644;DHT22;26931;43.498;-1.506;2022-09-09T07:21:03;21.50;92.30
34644;DHT22;26931;43.498;-1.506;2022-09-09T07:23:30;21.60;92.00
34644;DHT22;26931;43.498;-1.506;2022-09-09T07:25:57;21.60;91.60
34644;DHT22;26931;43.498;-1.506;2022-09-09T07:28:24;21.60;91.40
34644;DHT22;26931;43.498;-1.506;2022-09-09T07:30:58;21.60;91.20
34644;DHT22;26931;43.498;-1.506;2022-09-09T07:33:25;21.70;90.90
34644;DHT22;26931;43.498;-1.506;2022-09-09T07:35:52;21.70;90.70
34644;DHT22;26931;43.498;-1.506;2022-09-09T07:38:19;21.70;90.40
34644;DHT22;26931;43.498;-1.506;2022-09-09T07:40:46;21.70;90.00
34644;DHT22;26931;43.498;-1.506;2022-09-09T07:43:12;21.80;89.70
34644;DHT22;26931;43.498;-1.506;2022-09-09T07:45:38;21.70;89.50
34644;DHT22;26931;43.498;-1.506;2022-09-09T07:48:06;21.90;89.50
34644;DHT22;26931;43.498;-1.506;2022-09-09T07:50:32;21.90;89.20
34644;DHT22;26931;43.498;-1.506;2022-09-09T07:52:58;22.10;89.10
34644;DHT22;26931;43.498;-1.506;2022-09-09T07:55:24;21.90;88.50
34644;DHT22;26931;43.498;-1.506;2022-09-09T07:57:51;22.00;87.80
34644;DHT22;26931;43.498;-1.506;2022-09-09T08:00:17;22.10;87.30
34644;DHT22;26931;43.498;-1.506;2022-09-09T08:02:45;22.10;86.80
34644;DHT22;26931;43.498;-1.506;2022-09-09T08:05:12;22.20;86.30
34644;DHT22;26931;43.498;-1.506;2022-09-09T08:07:38;22.20;85.90
34644;DHT22;26931;43.498;-1.506;2022-09-09T08:10:05;22.30;85.80
34644;DHT22;26931;43.498;-1.506;2022-09-09T08:12:32;22.40;85.80
34644;DHT22;26931;43.498;-1.506;2022-09-09T08:14:58;22.50;85.40
34644;DHT22;26931;43.498;-1.506;2022-09-09T08:17:24;22.60;85.10
34644;DHT22;26931;43.498;-1.506;2022-09-09T08:19:50;22.60;84.80
34644;DHT22;26931;43.498;-1.506;2022-09-09T08:22:16;22.70;84.40
34644;DHT22;26931;43.498;-1.506;2022-09-09T08:24:42;22.80;83.90
34644;DHT22;26931;43.498;-1.506;2022-09-09T08:27:08;22.90;83.50
34644;DHT22;26931;43.498;-1.506;2022-09-09T08:29:35;23.00;83.30
34644;DHT22;26931;43.498;-1.506;2022-09-09T08:32:03;23.10;82.90
34644;DHT22;26931;43.498;-1.506;2022-09-09T08:34:30;23.10;82.80
34644;DHT22;26931;43.498;-1.506;2022-09-09T08:36:57;23.00;82.80
34644;DHT22;26931;43.498;-1.506;2022-09-09T08:39:23;23.00;82.90
34644;DHT22;26931;43.498;-1.506;2022-09-09T08:42:16;23.00;83.00
34644;DHT22;26931;43.498;-1.506;2022-09-09T08:45:10;23.00;83.10
34644;DHT22;26931;43.498;-1.506;2022-09-09T08:50:29;23.20;82.60
34644;DHT22;26931;43.498;-1.506;2022-09-09T08:58:20;23.20;81.90
34644;DHT22;26931;43.498;-1.506;2022-09-09T09:04:04;23.20;81.30
34644;DHT22;26931;43.498;-1.506;2022-09-09T09:12:32;23.30;80.70
34644;DHT22;26931;43.498;-1.506;2022-09-09T09:15:01;23.20;80.40
34644;DHT22;26931;43.498;-1.506;2022-09-09T09:17:29;23.20;80.20
34644;DHT22;26931;43.498;-1.506;2022-09-09T09:19:58;23.20;80.10
34644;DHT22;26931;43.498;-1.506;2022-09-09T09:22:52;23.20;79.90
34644;DHT22;26931;43.498;-1.506;2022-09-09T09:25:23;23.20;79.80
34644;DHT22;26931;43.498;-1.506;2022-09-09T09:28:20;23.20;79.80
34644;DHT22;26931;43.498;-1.506;2022-09-09T09:36:12;23.40;79.80
34644;DHT22;26931;43.498;-1.506;2022-09-09T09:38:58;23.30;79.40
34644;DHT22;26931;43.498;-1.506;2022-09-09T09:41:41;23.30;79.10
34644;DHT22;26931;43.498;-1.506;2022-09-09T09:44:27;23.30;79.00
34644;DHT22;26931;43.498;-1.506;2022-09-09T09:47:04;23.20;78.90
34644;DHT22;26931;43.498;-1.506;2022-09-09T09:49:31;23.30;78.80
34644;DHT22;26931;43.498;-1.506;2022-09-09T09:52:12;23.40;78.80
34644;DHT22;26931;43.498;-1.506;2022-09-09T09:54:42;23.50;79.70
34644;DHT22;26931;43.498;-1.506;2022-09-09T09:57:13;23.60;80.60
34644;DHT22;26931;43.498;-1.506;2022-09-09T09:59:40;23.70;81.50
34644;DHT22;26931;43.498;-1.506;2022-09-09T10:02:40;23.70;82.10
34644;DHT22;26931;43.498;-1.506;2022-09-09T10:05:29;23.90;82.80
34644;DHT22;26931;43.498;-1.506;2022-09-09T10:08:13;23.90;83.10
34644;DHT22;26931;43.498;-1.506;2022-09-09T10:13:42;23.80;83.90
34644;DHT22;26931;43.498;-1.506;2022-09-09T10:19:21;23.80;82.70
34644;DHT22;26931;43.498;-1.506;2022-09-09T10:22:00;23.70;82.70
34644;DHT22;26931;43.498;-1.506;2022-09-09T10:30:26;23.70;83.10
34644;DHT22;26931;43.498;-1.506;2022-09-09T10:33:22;23.80;82.90
34644;DHT22;26931;43.498;-1.506;2022-09-09T10:36:12;23.80;82.70
34644;DHT22;26931;43.498;-1.506;2022-09-09T10:38:45;23.70;82.40
34644;DHT22;26931;43.498;-1.506;2022-09-09T10:41:44;23.90;82.20
34644;DHT22;26931;43.498;-1.506;2022-09-09T10:45:08;24.10;81.90
34644;DHT22;26931;43.498;-1.506;2022-09-09T10:55:39;23.90;80.80
34644;DHT22;26931;43.498;-1.506;2022-09-09T10:58:09;23.90;80.80
34644;DHT22;26931;43.498;-1.506;2022-09-09T11:00:46;23.80;81.00
34644;DHT22;26931;43.498;-1.506;2022-09-09T11:03:24;23.70;81.30
34644;DHT22;26931;43.498;-1.506;2022-09-09T11:06:14;23.80;81.70
34644;DHT22;26931;43.498;-1.506;2022-09-09T11:08:42;23.90;81.70
34644;DHT22;26931;43.498;-1.506;2022-09-09T11:11:19;24.20;81.50
34644;DHT22;26931;43.498;-1.506;2022-09-09T11:14:09;24.10;81.20
34644;DHT22;26931;43.498;-1.506;2022-09-09T11:16:50;24.10;80.10
34644;DHT22;26931;43.498;-1.506;2022-09-09T11:19:19;24.20;79.30
34644;DHT22;26931;43.498;-1.506;2022-09-09T11:21:49;24.30;79.00
34644;DHT22;26931;43.498;-1.506;2022-09-09T11:24:26;24.40;78.60
34644;DHT22;26931;43.498;-1.506;2022-09-09T11:32:27;24.50;78.00
34644;DHT22;26931;43.498;-1.506;2022-09-09T11:35:24;24.40;77.70
34644;DHT22;26931;43.498;-1.506;2022-09-09T11:38:06;24.40;78.00
34644;DHT22;26931;43.498;-1.506;2022-09-09T11:40:35;24.20;78.30
34644;DHT22;26931;43.498;-1.506;2022-09-09T11:43:10;24.10;78.60
34644;DHT22;26931;43.498;-1.506;2022-09-09T11:45:39;24.10;78.90
34644;DHT22;26931;43.498;-1.506;2022-09-09T11:48:38;24.10;79.20
34644;DHT22;26931;43.498;-1.506;2022-09-09T11:51:27;24.20;79.60
34644;DHT22;26931;43.498;-1.506;2022-09-09T11:53:59;24.20;78.90
34644;DHT22;26931;43.498;-1.506;2022-09-09T11:56:41;24.20;78.20
34644;DHT22;26931;43.498;-1.506;2022-09-09T11:59:26;24.10;77.80
34644;DHT22;26931;43.498;-1.506;2022-09-09T12:02:08;24.10;78.00
34644;DHT22;26931;43.498;-1.506;2022-09-09T12:04:38;24.00;78.10
34644;DHT22;26931;43.498;-1.506;2022-09-09T12:07:22;23.90;78.00
34644;DHT22;26931;43.498;-1.506;2022-09-09T12:09:51;23.90;77.70
34644;DHT22;26931;43.498;-1.506;2022-09-09T12:12:36;23.90;77.50
34644;DHT22;26931;43.498;-1.506;2022-09-09T12:17:45;23.80;76.70
34644;DHT22;26931;43.498;-1.506;2022-09-09T12:20:15;23.80;76.30
34644;DHT22;26931;43.498;-1.506;2022-09-09T12:28:21;23.70;75.60
34644;DHT22;26931;43.498;-1.506;2022-09-09T12:33:40;23.80;75.80
34644;DHT22;26931;43.498;-1.506;2022-09-09T12:36:16;23.60;75.90
34644;DHT22;26931;43.498;-1.506;2022-09-09T12:38:45;23.50;75.70
34644;DHT22;26931;43.498;-1.506;2022-09-09T12:41:23;23.50;75.70
34644;DHT22;26931;43.498;-1.506;2022-09-09T12:43:50;23.40;75.70
34644;DHT22;26931;43.498;-1.506;2022-09-09T12:48:57;23.30;75.90
34644;DHT22;26931;43.498;-1.506;2022-09-09T12:51:29;23.40;76.00
34644;DHT22;26931;43.498;-1.506;2022-09-09T12:53:56;23.30;76.00
34644;DHT22;26931;43.498;-1.506;2022-09-09T12:56:31;23.40;76.10
34644;DHT22;26931;43.498;-1.506;2022-09-09T12:58:58;23.40;76.30
34644;DHT22;26931;43.498;-1.506;2022-09-09T13:01:27;23.50;76.50
34644;DHT22;26931;43.498;-1.506;2022-09-09T13:03:54;23.50;76.60
34644;DHT22;26931;43.498;-1.506;2022-09-09T13:06:28;23.80;76.80
34644;DHT22;26931;43.498;-1.506;2022-09-09T13:08:57;23.70;76.30
34644;DHT22;26931;43.498;-1.506;2022-09-09T13:11:37;23.70;75.90
34644;DHT22;26931;43.498;-1.506;2022-09-09T13:14:05;23.90;75.80
34644;DHT22;26931;43.498;-1.506;2022-09-09T13:16:34;23.70;75.60
34644;DHT22;26931;43.498;-1.506;2022-09-09T13:19:09;23.80;75.70
34644;DHT22;26931;43.498;-1.506;2022-09-09T13:21:39;23.80;75.90
34644;DHT22;26931;43.498;-1.506;2022-09-09T13:24:21;23.80;76.10
34644;DHT22;26931;43.498;-1.506;2022-09-09T13:27:01;23.80;76.40
34644;DHT22;26931;43.498;-1.506;2022-09-09T13:29:28;23.70;76.40
34644;DHT22;26931;43.498;-1.506;2022-09-09T13:32:12;23.60;76.30
34644;DHT22;26931;43.498;-1.506;2022-09-09T13:34:51;23.60;75.90
34644;DHT22;26931;43.498;-1.506;2022-09-09T13:37:32;23.50;75.40
34644;DHT22;26931;43.498;-1.506;2022-09-09T13:39:59;23.50;75.70
34644;DHT22;26931;43.498;-1.506;2022-09-09T13:42:30;23.50;75.80
34644;DHT22;26931;43.498;-1.506;2022-09-09T13:44:59;23.50;75.90
34644;DHT22;26931;43.498;-1.506;2022-09-09T13:47:36;23.50;75.80
34644;DHT22;26931;43.498;-1.506;2022-09-09T13:50:24;23.50;75.90
34644;DHT22;26931;43.498;-1.506;2022-09-09T13:52:53;23.50;75.90
34644;DHT22;26931;43.498;-1.506;2022-09-09T13:55:22;23.40;76.00
34644;DHT22;26931;43.498;-1.506;2022-09-09T14:00:21;23.40;76.20
34644;DHT22;26931;43.498;-1.506;2022-09-09T14:02:48;23.40;76.20
34644;DHT22;26931;43.498;-1.506;2022-09-09T14:05:14;23.40;75.90
34644;DHT22;26931;43.498;-1.506;2022-09-09T14:07:42;23.50;75.80
34644;DHT22;26931;43.498;-1.506;2022-09-09T14:10:08;23.50;75.40
34644;DHT22;26931;43.498;-1.506;2022-09-09T14:12:34;23.50;74.90
34644;DHT22;26931;43.498;-1.506;2022-09-09T14:14:59;23.50;74.70
34644;DHT22;26931;43.498;-1.506;2022-09-09T14:17:25;23.50;74.60
34644;DHT22;26931;43.498;-1.506;2022-09-09T14:19:57;23.50;74.70
34644;DHT22;26931;43.498;-1.506;2022-09-09T14:22:23;23.50;74.50
34644;DHT22;26931;43.498;-1.506;2022-09-09T14:24:51;23.40;74.50
34644;DHT22;26931;43.498;-1.506;2022-09-09T14:27:17;23.60;74.60
34644;DHT22;26931;43.498;-1.506;2022-09-09T14:29:44;23.50;74.60
34644;DHT22;26931;43.498;-1.506;2022-09-09T14:32:11;23.50;74.70
34644;DHT22;26931;43.498;-1.506;2022-09-09T14:34:37;23.50;74.80
34644;DHT22;26931;43.498;-1.506;2022-09-09T14:37:03;23.40;74.70
34644;DHT22;26931;43.498;-1.506;2022-09-09T14:39:28;23.50;74.70
34644;DHT22;26931;43.498;-1.506;2022-09-09T14:41:55;23.50;74.90
34644;DHT22;26931;43.498;-1.506;2022-09-09T14:44:20;23.50;74.70
34644;DHT22;26931;43.498;-1.506;2022-09-09T14:46:47;23.40;74.50
34644;DHT22;26931;43.498;-1.506;2022-09-09T14:49:16;23.40;74.40
34644;DHT22;26931;43.498;-1.506;2022-09-09T14:51:42;23.40;74.40
34644;DHT22;26931;43.498;-1.506;2022-09-09T14:54:08;23.40;74.50
34644;DHT22;26931;43.498;-1.506;2022-09-09T14:56:34;23.40;74.20
34644;DHT22;26931;43.498;-1.506;2022-09-09T14:59:00;23.40;73.90
34644;DHT22;26931;43.498;-1.506;2022-09-09T15:01:28;23.40;73.90
34644;DHT22;26931;43.498;-1.506;2022-09-09T15:04:00;23.40;74.10
34644;DHT22;26931;43.498;-1.506;2022-09-09T15:06:28;23.40;74.10
34644;DHT22;26931;43.498;-1.506;2022-09-09T15:08:59;23.40;74.30
34644;DHT22;26931;43.498;-1.506;2022-09-09T15:11:31;23.40;74.30
34644;DHT22;26931;43.498;-1.506;2022-09-09T15:14:00;23.40;74.00
34644;DHT22;26931;43.498;-1.506;2022-09-09T15:16:27;23.40;73.80
34644;DHT22;26931;43.498;-1.506;2022-09-09T15:18:56;23.40;73.70
34644;DHT22;26931;43.498;-1.506;2022-09-09T15:21:25;23.40;73.70
34644;DHT22;26931;43.498;-1.506;2022-09-09T15:23:52;23.30;73.70
34644;DHT22;26931;43.498;-1.506;2022-09-09T15:26:18;23.40;73.90
34644;DHT22;26931;43.498;-1.506;2022-09-09T15:28:47;23.40;73.90
34644;DHT22;26931;43.498;-1.506;2022-09-09T15:31:20;23.40;74.00
34644;DHT22;26931;43.498;-1.506;2022-09-09T15:33:51;23.70;75.10
34644;DHT22;26931;43.498;-1.506;2022-09-09T15:36:23;23.60;74.20
34644;DHT22;26931;43.498;-1.506;2022-09-09T15:38:49;23.80;74.20
34644;DHT22;26931;43.498;-1.506;2022-09-09T15:41:17;23.70;74.20
34644;DHT22;26931;43.498;-1.506;2022-09-09T15:43:45;23.70;74.00
34644;DHT22;26931;43.498;-1.506;2022-09-09T15:48:44;23.70;73.50
34644;DHT22;26931;43.498;-1.506;2022-09-09T15:51:11;23.70;73.40
34644;DHT22;26931;43.498;-1.506;2022-09-09T15:53:38;23.70;73.10
34644;DHT22;26931;43.498;-1.506;2022-09-09T15:56:07;23.70;72.90
34644;DHT22;26931;43.498;-1.506;2022-09-09T15:58:34;23.70;72.80
34644;DHT22;26931;43.498;-1.506;2022-09-09T16:01:05;23.70;72.90
34644;DHT22;26931;43.498;-1.506;2022-09-09T16:03:37;23.70;72.80
34644;DHT22;26931;43.498;-1.506;2022-09-09T16:06:04;23.80;72.70
34644;DHT22;26931;43.498;-1.506;2022-09-09T16:08:37;23.70;72.50
34644;DHT22;26931;43.498;-1.506;2022-09-09T16:11:05;23.60;72.50
34644;DHT22;26931;43.498;-1.506;2022-09-09T16:13:36;23.70;72.70
34644;DHT22;26931;43.498;-1.506;2022-09-09T16:16:03;23.60;72.50
34644;DHT22;26931;43.498;-1.506;2022-09-09T16:18:37;23.70;72.60
34644;DHT22;26931;43.498;-1.506;2022-09-09T16:21:04;23.60;72.50
34644;DHT22;26931;43.498;-1.506;2022-09-09T16:23:34;23.60;72.60
34644;DHT22;26931;43.498;-1.506;2022-09-09T16:26:01;23.70;72.70
34644;DHT22;26931;43.498;-1.506;2022-09-09T16:28:27;23.60;72.60
34644;DHT22;26931;43.498;-1.506;2022-09-09T16:30:54;23.60;72.60
34644;DHT22;26931;43.498;-1.506;2022-09-09T16:33:20;23.80;72.60
34644;DHT22;26931;43.498;-1.506;2022-09-09T16:35:46;23.60;72.50
34644;DHT22;26931;43.498;-1.506;2022-09-09T16:38:12;23.60;72.60
34644;DHT22;26931;43.498;-1.506;2022-09-09T16:40:38;23.60;72.60
34644;DHT22;26931;43.498;-1.506;2022-09-09T16:43:06;23.60;72.60
34644;DHT22;26931;43.498;-1.506;2022-09-09T16:45:32;23.60;72.60
34644;DHT22;26931;43.498;-1.506;2022-09-09T16:47:59;23.50;72.50
34644;DHT22;26931;43.498;-1.506;2022-09-09T16:50:26;23.60;72.50
34644;DHT22;26931;43.498;-1.506;2022-09-09T16:52:52;23.60;72.50
34644;DHT22;26931;43.498;-1.506;2022-09-09T16:55:19;23.50;72.50
34644;DHT22;26931;43.498;-1.506;2022-09-09T16:57:46;23.50;72.60
34644;DHT22;26931;43.498;-1.506;2022-09-09T17:00:16;23.50;72.80
34644;DHT22;26931;43.498;-1.506;2022-09-09T17:02:45;23.30;72.90
34644;DHT22;26931;43.498;-1.506;2022-09-09T17:05:11;23.30;73.00
34644;DHT22;26931;43.498;-1.506;2022-09-09T17:07:38;23.30;73.10
34644;DHT22;26931;43.498;-1.506;2022-09-09T17:10:04;23.40;73.30
34644;DHT22;26931;43.498;-1.506;2022-09-09T17:12:31;23.30;73.40
34644;DHT22;26931;43.498;-1.506;2022-09-09T17:14:58;23.50;73.70
34644;DHT22;26931;43.498;-1.506;2022-09-09T17:17:26;23.30;73.60
34644;DHT22;26931;43.498;-1.506;2022-09-09T17:19:52;23.30;73.70
34644;DHT22;26931;43.498;-1.506;2022-09-09T17:22:19;23.30;73.80
34644;DHT22;26931;43.498;-1.506;2022-09-09T17:24:46;23.20;73.90